sensor_id;sensor_type;location;lat;lon;timestamp;pressure;altitude;pressure_sealevel;temperature;humidity
44131;BME280;29792;48.726;9.248;2023-03-14T00:01:18;95388.28;;;9.25;100.00
44131;BME280;29792;48.726;9.248;2023-03-14T00:03:47;95362.59;;;9.26;100.00
44131;BME280;29792;48.726;9.248;2023-03-14T00:06:13;95342.28;;;9.25;100.00
44131;BME280;29792;48.726;9.248;2023-03-14T00:08:39;95329.53;;;9.25;100.00
44131;BME280;29792;48.726;9.248;2023-03-14T00:13:31;95338.97;;;9.24;100.00
44131;BME280;29792;48.726;9.248;2023-03-14T00:16:02;95334.63;;;9.25;100.00
44131;BME280;29792;48.726;9.248;2023-03-14T00:18:28;95319.31;;;9.25;100.00
44131;BME280;29792;48.726;9.248;2023-03-14T00:20:53;95320.91;;;9.26;100.00
44131;BME280;29792;48.726;9.248;2023-03-14T00:23:18;95335.63;;;9.24;100.00
44131;BME280;29792;48.726;9.248;2023-03-14T00:25:43;95319.31;;;9.25;100.00
44131;BME280;29792;48.726;9.248;2023-03-14T00:28:09;95299.50;;;9.27;100.00
44131;BME280;29792;48.726;9.248;2023-03-14T00:30:36;95297.75;;;9.27;100.00
44131;BME280;29792;48.726;9.248;2023-03-14T00:33:02;95289.28;;;9.27;100.00
44131;BME280;29792;48.726;9.248;2023-03-14T00:35:27;95303.66;;;9.28;100.00
44131;BME280;29792;48.726;9.248;2023-03-14T00:37:52;95302.72;;;9.29;100.00
44131;BME280;29792;48.726;9.248;2023-03-14T00:40:17;95311.84;;;9.31;100.00
44131;BME280;29792;48.726;9.248;2023-03-14T00:42:43;95313.59;;;9.31;100.00
44131;BME280;29792;48.726;9.248;2023-03-14T00:45:08;95320.31;;;9.32;100.00
44131;BME280;29792;48.726;9.248;2023-03-14T00:47:35;95298.88;;;9.33;100.00
44131;BME280;29792;48.726;9.248;2023-03-14T00:50:00;95305.78;;;9.32;100.00
44131;BME280;29792;48.726;9.248;2023-03-14T00:52:26;95310.69;;;9.34;100.00
44131;BME280;29792;48.726;9.248;2023-03-14T00:54:51;95300.66;;;9.32;100.00
44131;BME280;29792;48.726;9.248;2023-03-14T00:57:16;95310.09;;;9.32;100.00
44131;BME280;29792;48.726;9.248;2023-03-14T00:59:41;95315.00;;;9.33;100.00
44131;BME280;29792;48.726;9.248;2023-03-14T01:02:07;95315.50;;;9.37;100.00
44131;BME280;29792;48.726;9.248;2023-03-14T01:04:32;95318.22;;;9.35;100.00
44131;BME280;29792;48.726;9.248;2023-03-14T01:06:57;95319.97;;;9.35;100.00
44131;BME280;29792;48.726;9.248;2023-03-14T01:09:23;95330.19;;;9.35;100.00
44131;BME280;29792;48.726;9.248;2023-03-14T01:11:48;95336.91;;;9.36;100.00
44131;BME280;29792;48.726;9.248;2023-03-14T01:14:14;95327.47;;;9.36;100.00
44131;BME280;29792;48.726;9.248;2023-03-14T01:16:39;95320.78;;;9.35;100.00
44131;BME280;29792;48.726;9.248;2023-03-14T01:19:04;95314.72;;;9.36;100.00
44131;BME280;29792;48.726;9.248;2023-03-14T01:21:32;95309.59;;;9.36;100.00
44131;BME280;29792;48.726;9.248;2023-03-14T01:23:59;95311.34;;;9.36;100.00
44131;BME280;29792;48.726;9.248;2023-03-14T01:26:26;95305.59;;;9.34;100.00
44131;BME280;29792;48.726;9.248;2023-03-14T01:28:54;95293.47;;;9.36;100.00
44131;BME280;29792;48.726;9.248;2023-03-14T01:31:19;95275.88;;;9.33;100.00
44131;BME280;29792;48.726;9.248;2023-03-14T01:33:45;95278.28;;;9.34;100.00
44131;BME280;29792;48.726;9.248;2023-03-14T01:36:11;95281.78;;;9.33;100.00
44131;BME280;29792;48.726;9.248;2023-03-14T01:38:38;95279.41;;;9.32;100.00
44131;BME280;29792;48.726;9.248;2023-03-14T01:41:04;95275.13;;;9.32;100.00
44131;BME280;29792;48.726;9.248;2023-03-14T01:43:30;95265.66;;;9.33;100.00
44131;BME280;29792;48.726;9.248;2023-03-14T01:48:40;95248.56;;;9.33;100.00
44131;BME280;29792;48.726;9.248;2023-03-14T01:51:11;95252.72;;;9.34;100.00
44131;BME280;29792;48.726;9.248;2023-03-14T01:53:39;95245.56;;;9.30;100.00
44131;BME280;29792;48.726;9.248;2023-03-14T01:56:08;95241.09;;;9.32;100.00
44131;BME280;29792;48.726;9.248;2023-03-14T01:58:35;95222.56;;;9.30;100.00
44131;BME280;29792;48.726;9.248;2023-03-14T02:01:01;95229.59;;;9.28;100.00
44131;BME280;29792;48.726;9.248;2023-03-14T02:03:29;95231.19;;;9.29;100.00
44131;BME280;29792;48.726;9.248;2023-03-14T02:05:59;95228.78;;;9.27;100.00
44131;BME280;29792;48.726;9.248;2023-03-14T02:08:29;95217.75;;;9.27;100.00
44131;BME280;29792;48.726;9.248;2023-03-14T02:10:56;95235.66;;;9.27;100.00
44131;BME280;29792;48.726;9.248;2023-03-14T02:13:22;95231.19;;;9.29;100.00
44131;BME280;29792;48.726;9.248;2023-03-14T02:15:48;95232.28;;;9.34;100.00
44131;BME280;29792;48.726;9.248;2023-03-14T02:18:14;95217.44;;;9.38;100.00
44131;BME280;29792;48.726;9.248;2023-03-14T02:20:49;95218.09;;;9.40;100.00
44131;BME280;29792;48.726;9.248;2023-03-14T02:23:28;95220.47;;;9.41;100.00
44131;BME280;29792;48.726;9.248;2023-03-14T02:26:10;95216.16;;;9.42;100.00
44131;BME280;29792;48.726;9.248;2023-03-14T02:28:36;95214.41;;;9.42;100.00
44131;BME280;29792;48.726;9.248;2023-03-14T02:31:02;95212.00;;;9.41;100.00
44131;BME280;29792;48.726;9.248;2023-03-14T02:33:27;95200.84;;;9.42;100.00
44131;BME280;29792;48.726;9.248;2023-03-14T02:36:05;95196.69;;;9.41;100.00
44131;BME280;29792;48.726;9.248;2023-03-14T02:38:44;95190.44;;;9.43;100.00
44131;BME280;29792;48.726;9.248;2023-03-14T02:41:11;95200.69;;;9.43;100.00
44131;BME280;29792;48.726;9.248;2023-03-14T02:43:36;95204.03;;;9.44;100.00
44131;BME280;29792;48.726;9.248;2023-03-14T02:46:03;95200.69;;;9.43;100.00
44131;BME280;29792;48.726;9.248;2023-03-14T02:48:33;95187.09;;;9.43;100.00
44131;BME280;29792;48.726;9.248;2023-03-14T02:51:01;95187.75;;;9.45;100.00
44131;BME280;29792;48.726;9.248;2023-03-14T02:53:32;95176.56;;;9.46;100.00
44131;BME280;29792;48.726;9.248;2023-03-14T02:55:58;95162.19;;;9.45;100.00
44131;BME280;29792;48.726;9.248;2023-03-14T02:58:25;95157.22;;;9.43;100.00
44131;BME280;29792;48.726;9.248;2023-03-14T03:00:51;95170.97;;;9.42;100.00
44131;BME280;29792;48.726;9.248;2023-03-14T03:03:16;95161.69;;;9.41;100.00
44131;BME280;29792;48.726;9.248;2023-03-14T03:05:41;95151.66;;;9.40;100.00
44131;BME280;29792;48.726;9.248;2023-03-14T03:08:09;95155.97;;;9.39;100.00
44131;BME280;29792;48.726;9.248;2023-03-14T03:10:34;95162.84;;;9.39;100.00
44131;BME280;29792;48.726;9.248;2023-03-14T03:12:59;95155.34;;;9.37;100.00
44131;BME280;29792;48.726;9.248;2023-03-14T03:15:25;95140.97;;;9.36;100.00
44131;BME280;29792;48.726;9.248;2023-03-14T03:17:50;95128.50;;;9.33;100.00
44131;BME280;29792;48.726;9.248;2023-03-14T03:20:15;95120.81;;;9.33;100.00
44131;BME280;29792;48.726;9.248;2023-03-14T03:22:41;95114.31;;;9.31;100.00
44131;BME280;29792;48.726;9.248;2023-03-14T03:25:07;95118.63;;;9.30;100.00
44131;BME280;29792;48.726;9.248;2023-03-14T03:27:34;95109.50;;;9.28;100.00
44131;BME280;29792;48.726;9.248;2023-03-14T03:30:00;95113.00;;;9.27;100.00
44131;BME280;29792;48.726;9.248;2023-03-14T03:32:26;95115.56;;;9.27;100.00
44131;BME280;29792;48.726;9.248;2023-03-14T03:34:51;95096.09;;;9.26;100.00
44131;BME280;29792;48.726;9.248;2023-03-14T03:37:16;95096.88;;;9.26;100.00
44131;BME280;29792;48.726;9.248;2023-03-14T03:39:42;95096.44;;;9.23;100.00
44131;BME280;29792;48.726;9.248;2023-03-14T03:42:07;95083.00;;;9.21;100.00
44131;BME280;29792;48.726;9.248;2023-03-14T03:44:33;95084.78;;;9.20;100.00
44131;BME280;29792;48.726;9.248;2023-03-14T03:46:58;95078.84;;;9.19;100.00
44131;BME280;29792;48.726;9.248;2023-03-14T03:49:24;95083.97;;;9.19;100.00
44131;BME280;29792;48.726;9.248;2023-03-14T03:51:49;95087.31;;;9.20;100.00
44131;BME280;29792;48.726;9.248;2023-03-14T03:54:14;95071.34;;;9.18;100.00
44131;BME280;29792;48.726;9.248;2023-03-14T03:56:39;95079.97;;;9.17;100.00
44131;BME280;29792;48.726;9.248;2023-03-14T03:59:05;95080.31;;;9.14;100.00
44131;BME280;29792;48.726;9.248;2023-03-14T04:01:30;95079.34;;;9.15;100.00
44131;BME280;29792;48.726;9.248;2023-03-14T04:03:55;95071.84;;;9.13;100.00
44131;BME280;29792;48.726;9.248;2023-03-14T04:06:20;95076.47;;;9.10;100.00
44131;BME280;29792;48.726;9.248;2023-03-14T04:08:46;95075.06;;;9.07;100.00
44131;BME280;29792;48.726;9.248;2023-03-14T04:11:11;95073.47;;;9.06;100.00
44131;BME280;29792;48.726;9.248;2023-03-14T04:13:37;95066.75;;;9.05;100.00
44131;BME280;29792;48.726;9.248;2023-03-14T04:16:02;95077.94;;;9.04;100.00
44131;BME280;29792;48.726;9.248;2023-03-14T04:18:27;95076.47;;;9.02;100.00
44131;BME280;29792;48.726;9.248;2023-03-14T04:20:55;95075.53;;;9.03;100.00
44131;BME280;29792;48.726;9.248;2023-03-14T04:23:22;95076.63;;;9.00;100.00
44131;BME280;29792;48.726;9.248;2023-03-14T04:25:50;95076.63;;;9.00;100.00
44131;BME280;29792;48.726;9.248;2023-03-14T04:28:15;95077.44;;;9.01;100.00
44131;BME280;29792;48.726;9.248;2023-03-14T04:30:40;95077.44;;;9.01;100.00
44131;BME280;29792;48.726;9.248;2023-03-14T04:33:06;95075.88;;;9.00;100.00
44131;BME280;29792;48.726;9.248;2023-03-14T04:35:32;95080.19;;;8.99;100.00
44131;BME280;29792;48.726;9.248;2023-03-14T04:37:57;95076.81;;;8.99;100.00
44131;BME280;29792;48.726;9.248;2023-03-14T04:40:24;95072.50;;;8.99;100.00
44131;BME280;29792;48.726;9.248;2023-03-14T04:42:49;95068.50;;;8.97;100.00
44131;BME280;29792;48.726;9.248;2023-03-14T04:45:15;95065.16;;;8.96;100.00
44131;BME280;29792;48.726;9.248;2023-03-14T04:47:40;95064.38;;;8.96;100.00
44131;BME280;29792;48.726;9.248;2023-03-14T04:50:05;95057.66;;;8.95;100.00
44131;BME280;29792;48.726;9.248;2023-03-14T04:52:31;95052.72;;;8.93;100.00
44131;BME280;29792;48.726;9.248;2023-03-14T04:54:56;95051.75;;;8.94;100.00
44131;BME280;29792;48.726;9.248;2023-03-14T04:57:21;95058.78;;;8.92;100.00
44131;BME280;29792;48.726;9.248;2023-03-14T04:59:46;95044.75;;;8.88;100.00
44131;BME280;29792;48.726;9.248;2023-03-14T05:02:12;95050.81;;;8.87;100.00
44131;BME280;29792;48.726;9.248;2023-03-14T05:04:37;95047.00;;;8.83;100.00
44131;BME280;29792;48.726;9.248;2023-03-14T05:07:02;95033.59;;;8.81;100.00
44131;BME280;29792;48.726;9.248;2023-03-14T05:09:28;95038.03;;;8.79;100.00
44131;BME280;29792;48.726;9.248;2023-03-14T05:11:53;95028.78;;;8.78;100.00
44131;BME280;29792;48.726;9.248;2023-03-14T05:14:18;95035.03;;;8.75;100.00
44131;BME280;29792;48.726;9.248;2023-03-14T05:16:43;95035.34;;;8.72;100.00
44131;BME280;29792;48.726;9.248;2023-03-14T05:19:10;95033.75;;;8.71;100.00
44131;BME280;29792;48.726;9.248;2023-03-14T05:21:35;95023.69;;;8.70;100.00
44131;BME280;29792;48.726;9.248;2023-03-14T05:24:01;95024.63;;;8.69;100.00
44131;BME280;29792;48.726;9.248;2023-03-14T05:26:26;95018.59;;;8.70;100.00
44131;BME280;29792;48.726;9.248;2023-03-14T05:28:51;95020.19;;;8.71;100.00
44131;BME280;29792;48.726;9.248;2023-03-14T05:31:16;95023.53;;;8.71;100.00
44131;BME280;29792;48.726;9.248;2023-03-14T05:33:42;95026.09;;;8.71;100.00
44131;BME280;29792;48.726;9.248;2023-03-14T05:36:07;95031.03;;;8.73;100.00
44131;BME280;29792;48.726;9.248;2023-03-14T05:38:33;95017.94;;;8.76;100.00
44131;BME280;29792;48.726;9.248;2023-03-14T05:40:58;95020.97;;;8.79;100.00
44131;BME280;29792;48.726;9.248;2023-03-14T05:43:23;95014.91;;;8.80;100.00
44131;BME280;29792;48.726;9.248;2023-03-14T05:45:48;95013.47;;;8.86;100.00
44131;BME280;29792;48.726;9.248;2023-03-14T05:48:14;95016.66;;;8.88;100.00
44131;BME280;29792;48.726;9.248;2023-03-14T05:50:39;95007.25;;;8.89;100.00
44131;BME280;29792;48.726;9.248;2023-03-14T05:53:04;95002.59;;;8.92;100.00
44131;BME280;29792;48.726;9.248;2023-03-14T05:55:30;95000.84;;;8.93;100.00
44131;BME280;29792;48.726;9.248;2023-03-14T05:57:55;94989.84;;;8.92;100.00
44131;BME280;29792;48.726;9.248;2023-03-14T06:00:21;94982.97;;;8.93;100.00
44131;BME280;29792;48.726;9.248;2023-03-14T06:02:47;94988.25;;;8.91;100.00
44131;BME280;29792;48.726;9.248;2023-03-14T06:05:12;94986.50;;;8.92;100.00
44131;BME280;29792;48.726;9.248;2023-03-14T06:07:37;95002.13;;;8.89;100.00
44131;BME280;29792;48.726;9.248;2023-03-14T06:10:03;95003.41;;;8.85;100.00
44131;BME280;29792;48.726;9.248;2023-03-14T06:12:29;95008.50;;;8.85;100.00
44131;BME280;29792;48.726;9.248;2023-03-14T06:14:54;94996.56;;;8.85;100.00
44131;BME280;29792;48.726;9.248;2023-03-14T06:17:19;94997.84;;;8.89;100.00
44131;BME280;29792;48.726;9.248;2023-03-14T06:19:44;94992.72;;;8.89;100.00
44131;BME280;29792;48.726;9.248;2023-03-14T06:22:20;94986.81;;;8.89;100.00
44131;BME280;29792;48.726;9.248;2023-03-14T06:24:46;94996.72;;;8.92;100.00
44131;BME280;29792;48.726;9.248;2023-03-14T06:27:11;95004.84;;;8.95;100.00
44131;BME280;29792;48.726;9.248;2023-03-14T06:29:36;94995.25;;;8.97;100.00
44131;BME280;29792;48.726;9.248;2023-03-14T06:32:02;95000.81;;;9.01;100.00
44131;BME280;29792;48.726;9.248;2023-03-14T06:34:27;95012.47;;;9.03;100.00
44131;BME280;29792;48.726;9.248;2023-03-14T06:36:52;94999.56;;;9.05;100.00
44131;BME280;29792;48.726;9.248;2023-03-14T06:39:18;95001.16;;;9.06;100.00
44131;BME280;29792;48.726;9.248;2023-03-14T06:41:43;94992.53;;;9.07;100.00
44131;BME280;29792;48.726;9.248;2023-03-14T06:44:08;94994.91;;;9.08;100.00
44131;BME280;29792;48.726;9.248;2023-03-14T06:46:33;94995.09;;;9.07;100.00
44131;BME280;29792;48.726;9.248;2023-03-14T06:48:59;94995.09;;;9.07;100.00
44131;BME280;29792;48.726;9.248;2023-03-14T06:51:24;94999.06;;;9.09;100.00
44131;BME280;29792;48.726;9.248;2023-03-14T06:53:49;94996.19;;;9.12;100.00
44131;BME280;29792;48.726;9.248;2023-03-14T06:56:15;94994.28;;;9.14;100.00
44131;BME280;29792;48.726;9.248;2023-03-14T06:58:40;95000.00;;;9.16;100.00
44131;BME280;29792;48.726;9.248;2023-03-14T07:01:06;94997.75;;;9.22;100.00
44131;BME280;29792;48.726;9.248;2023-03-14T07:03:40;95004.09;;;9.34;100.00
44131;BME280;29792;48.726;9.248;2023-03-14T07:06:05;94996.59;;;9.40;100.00
44131;BME280;29792;48.726;9.248;2023-03-14T07:08:31;95004.03;;;9.50;100.00
44131;BME280;29792;48.726;9.248;2023-03-14T07:10:56;94997.97;;;9.51;100.00
44131;BME280;29792;48.726;9.248;2023-03-14T07:13:22;95002.75;;;9.54;100.00
44131;BME280;29792;48.726;9.248;2023-03-14T07:15:47;94998.59;;;9.53;100.00
44131;BME280;29792;48.726;9.248;2023-03-14T07:18:12;95010.88;;;9.57;100.00
44131;BME280;29792;48.726;9.248;2023-03-14T07:20:38;95009.88;;;9.67;100.00
44131;BME280;29792;48.726;9.248;2023-03-14T07:23:03;95005.09;;;9.72;100.00
44131;BME280;29792;48.726;9.248;2023-03-14T07:25:28;95010.81;;;9.74;100.00
44131;BME280;29792;48.726;9.248;2023-03-14T07:27:54;95004.91;;;9.73;100.00
44131;BME280;29792;48.726;9.248;2023-03-14T07:30:19;95015.31;;;9.72;100.00
44131;BME280;29792;48.726;9.248;2023-03-14T07:32:44;95018.47;;;9.74;100.00
44131;BME280;29792;48.726;9.248;2023-03-14T07:35:10;95018.75;;;9.87;100.00
44131;BME280;29792;48.726;9.248;2023-03-14T07:37:35;95014.22;;;9.97;100.00
44131;BME280;29792;48.726;9.248;2023-03-14T07:40:00;95022.94;;;10.11;100.00
44131;BME280;29792;48.726;9.248;2023-03-14T07:42:26;95019.41;;;10.20;100.00
44131;BME280;29792;48.726;9.248;2023-03-14T07:44:51;95025.06;;;10.30;100.00
44131;BME280;29792;48.726;9.248;2023-03-14T07:47:16;95022.34;;;10.31;99.12
44131;BME280;29792;48.726;9.248;2023-03-14T07:49:41;95022.66;;;10.37;99.71
44131;BME280;29792;48.726;9.248;2023-03-14T07:52:07;95026.91;;;10.44;100.00
44131;BME280;29792;48.726;9.248;2023-03-14T07:54:32;95028.44;;;10.53;99.22
44131;BME280;29792;48.726;9.248;2023-03-14T07:56:57;95026.56;;;10.70;98.56
44131;BME280;29792;48.726;9.248;2023-03-14T07:59:25;95024.56;;;10.95;98.17
44131;BME280;29792;48.726;9.248;2023-03-14T08:01:50;95028.06;;;11.17;96.49
44131;BME280;29792;48.726;9.248;2023-03-14T08:04:16;95016.13;;;11.38;95.83
44131;BME280;29792;48.726;9.248;2023-03-14T08:06:41;95030.72;;;11.53;93.89
44131;BME280;29792;48.726;9.248;2023-03-14T08:09:06;95030.53;;;11.54;90.52
44131;BME280;29792;48.726;9.248;2023-03-14T08:11:31;95037.88;;;11.57;89.17
44131;BME280;29792;48.726;9.248;2023-03-14T08:13:57;95018.41;;;11.63;88.85
44131;BME280;29792;48.726;9.248;2023-03-14T08:16:22;95031.78;;;11.73;88.29
44131;BME280;29792;48.726;9.248;2023-03-14T08:18:47;95017.09;;;11.81;87.19
44131;BME280;29792;48.726;9.248;2023-03-14T08:21:13;95018.28;;;12.00;88.03
44131;BME280;29792;48.726;9.248;2023-03-14T08:23:38;95020.22;;;12.13;87.13
44131;BME280;29792;48.726;9.248;2023-03-14T08:26:04;95026.38;;;12.18;85.80
44131;BME280;29792;48.726;9.248;2023-03-14T08:28:29;95025.97;;;12.15;85.21
44131;BME280;29792;48.726;9.248;2023-03-14T08:30:57;95023.66;;;12.20;85.06
44131;BME280;29792;48.726;9.248;2023-03-14T08:33:23;95021.53;;;12.23;83.05
44131;BME280;29792;48.726;9.248;2023-03-14T08:35:52;95030.44;;;12.28;82.61
44131;BME280;29792;48.726;9.248;2023-03-14T08:38:17;95023.88;;;12.25;83.32
44131;BME280;29792;48.726;9.248;2023-03-14T08:40:43;95022.84;;;12.19;81.98
44131;BME280;29792;48.726;9.248;2023-03-14T08:43:08;95016.13;;;12.18;82.78
44131;BME280;29792;48.726;9.248;2023-03-14T08:45:33;95033.13;;;12.19;83.10
44131;BME280;29792;48.726;9.248;2023-03-14T08:47:58;95021.16;;;12.27;80.04
44131;BME280;29792;48.726;9.248;2023-03-14T08:50:24;95012.72;;;12.54;80.71
44131;BME280;29792;48.726;9.248;2023-03-14T08:52:49;95017.34;;;12.86;80.54
44131;BME280;29792;48.726;9.248;2023-03-14T08:55:14;95008.25;;;13.12;76.40
44131;BME280;29792;48.726;9.248;2023-03-14T08:57:40;95014.56;;;13.37;73.75
44131;BME280;29792;48.726;9.248;2023-03-14T09:00:05;95026.31;;;13.53;71.40
44131;BME280;29792;48.726;9.248;2023-03-14T09:02:35;95008.56;;;13.64;70.69
44131;BME280;29792;48.726;9.248;2023-03-14T09:05:01;95015.97;;;13.87;70.29
44131;BME280;29792;48.726;9.248;2023-03-14T09:07:26;95050.34;;;14.21;71.87
44131;BME280;29792;48.726;9.248;2023-03-14T09:09:51;95051.06;;;14.42;68.28
44131;BME280;29792;48.726;9.248;2023-03-14T09:12:16;95042.56;;;14.55;68.14
44131;BME280;29792;48.726;9.248;2023-03-14T09:14:42;95057.03;;;14.63;66.74
44131;BME280;29792;48.726;9.248;2023-03-14T09:17:07;95070.66;;;14.43;66.00
44131;BME280;29792;48.726;9.248;2023-03-14T09:19:33;95067.19;;;14.17;67.17
44131;BME280;29792;48.726;9.248;2023-03-14T09:21:58;95057.22;;;14.00;69.86
44131;BME280;29792;48.726;9.248;2023-03-14T09:24:23;95059.38;;;13.97;71.12
44131;BME280;29792;48.726;9.248;2023-03-14T09:26:49;95055.78;;;13.85;71.26
44131;BME280;29792;48.726;9.248;2023-03-14T09:29:14;95046.22;;;13.79;70.95
44131;BME280;29792;48.726;9.248;2023-03-14T09:31:39;95076.88;;;13.73;71.27
44131;BME280;29792;48.726;9.248;2023-03-14T09:34:04;95076.53;;;13.77;72.32
44131;BME280;29792;48.726;9.248;2023-03-14T09:36:30;95085.09;;;13.90;72.45
44131;BME280;29792;48.726;9.248;2023-03-14T09:38:56;95074.28;;;14.08;71.33
44131;BME280;29792;48.726;9.248;2023-03-14T09:41:27;95083.25;;;14.19;71.40
44131;BME280;29792;48.726;9.248;2023-03-14T09:44:12;95078.88;;;14.19;69.51
44131;BME280;29792;48.726;9.248;2023-03-14T09:46:39;95083.34;;;13.97;68.93
44131;BME280;29792;48.726;9.248;2023-03-14T09:49:25;95094.53;;;13.77;68.48
44131;BME280;29792;48.726;9.248;2023-03-14T09:51:53;95098.34;;;13.53;67.97
44131;BME280;29792;48.726;9.248;2023-03-14T09:54:29;95098.69;;;13.22;67.72
44131;BME280;29792;48.726;9.248;2023-03-14T09:56:56;95090.38;;;12.98;70.63
44131;BME280;29792;48.726;9.248;2023-03-14T09:59:21;95108.06;;;12.87;71.42
44131;BME280;29792;48.726;9.248;2023-03-14T10:01:47;95102.63;;;12.75;70.55
44131;BME280;29792;48.726;9.248;2023-03-14T10:04:15;95105.06;;;12.62;71.15
44131;BME280;29792;48.726;9.248;2023-03-14T10:06:42;95106.59;;;12.56;71.92
44131;BME280;29792;48.726;9.248;2023-03-14T10:09:19;95089.72;;;12.47;72.20
44131;BME280;29792;48.726;9.248;2023-03-14T10:11:51;95098.38;;;12.46;73.10
44131;BME280;29792;48.726;9.248;2023-03-14T10:14:28;95096.50;;;12.55;72.71
44131;BME280;29792;48.726;9.248;2023-03-14T10:16:54;95088.91;;;12.68;73.99
44131;BME280;29792;48.726;9.248;2023-03-14T10:19:19;95083.41;;;12.92;74.45
44131;BME280;29792;48.726;9.248;2023-03-14T10:21:51;95072.25;;;13.28;74.10
44131;BME280;29792;48.726;9.248;2023-03-14T10:24:29;95068.28;;;13.94;74.19
44131;BME280;29792;48.726;9.248;2023-03-14T10:26:59;95084.28;;;14.31;67.27
44131;BME280;29792;48.726;9.248;2023-03-14T10:29:27;95070.16;;;14.81;68.33
44131;BME280;29792;48.726;9.248;2023-03-14T10:32:06;95069.72;;;14.77;66.22
44131;BME280;29792;48.726;9.248;2023-03-14T10:34:37;95061.41;;;14.69;65.22
44131;BME280;29792;48.726;9.248;2023-03-14T10:37:23;95064.75;;;14.49;64.37
44131;BME280;29792;48.726;9.248;2023-03-14T10:39:53;95068.56;;;14.19;64.29
44131;BME280;29792;48.726;9.248;2023-03-14T10:42:28;95060.16;;;13.91;65.25
44131;BME280;29792;48.726;9.248;2023-03-14T10:44:57;95069.63;;;13.84;66.58
44131;BME280;29792;48.726;9.248;2023-03-14T10:47:25;95060.31;;;13.83;67.74
44131;BME280;29792;48.726;9.248;2023-03-14T10:49:51;95065.34;;;13.63;66.94
44131;BME280;29792;48.726;9.248;2023-03-14T10:52:25;95071.78;;;13.46;66.57
44131;BME280;29792;48.726;9.248;2023-03-14T10:55:01;95071.47;;;13.27;67.52
44131;BME280;29792;48.726;9.248;2023-03-14T10:57:28;95082.78;;;13.12;69.18
44131;BME280;29792;48.726;9.248;2023-03-14T10:59:55;95077.16;;;13.02;69.28
44131;BME280;29792;48.726;9.248;2023-03-14T11:02:40;95091.25;;;12.84;69.88
44131;BME280;29792;48.726;9.248;2023-03-14T11:05:22;95097.97;;;12.64;71.92
44131;BME280;29792;48.726;9.248;2023-03-14T11:07:52;95090.06;;;12.44;72.94
44131;BME280;29792;48.726;9.248;2023-03-14T11:10:32;95099.47;;;12.37;75.45
44131;BME280;29792;48.726;9.248;2023-03-14T11:15:57;95082.34;;;12.23;76.78
44131;BME280;29792;48.726;9.248;2023-03-14T11:24:18;95100.50;;;12.07;76.92
44131;BME280;29792;48.726;9.248;2023-03-14T11:27:07;95114.56;;;11.96;78.70
44131;BME280;29792;48.726;9.248;2023-03-14T11:29:59;95108.19;;;11.92;80.21
44131;BME280;29792;48.726;9.248;2023-03-14T11:40:31;95121.81;;;11.78;83.11
44131;BME280;29792;48.726;9.248;2023-03-14T11:43:13;95121.81;;;11.78;82.04
44131;BME280;29792;48.726;9.248;2023-03-14T11:45:42;95123.47;;;11.71;81.93
44131;BME280;29792;48.726;9.248;2023-03-14T11:48:25;95123.72;;;11.61;83.00
44131;BME280;29792;48.726;9.248;2023-03-14T11:50:57;95126.22;;;11.55;86.73
44131;BME280;29792;48.726;9.248;2023-03-14T11:54:04;95133.81;;;11.48;86.33
44131;BME280;29792;48.726;9.248;2023-03-14T11:56:33;95144.22;;;11.46;87.81
44131;BME280;29792;48.726;9.248;2023-03-14T11:59:13;95140.00;;;11.54;88.39
44131;BME280;29792;48.726;9.248;2023-03-14T12:01:52;95157.78;;;11.55;87.31
44131;BME280;29792;48.726;9.248;2023-03-14T12:04:24;95145.38;;;11.44;87.73
44131;BME280;29792;48.726;9.248;2023-03-14T12:06:56;95153.69;;;11.46;88.14
44131;BME280;29792;48.726;9.248;2023-03-14T12:09:23;95156.88;;;11.48;87.71
44131;BME280;29792;48.726;9.248;2023-03-14T12:11:59;95173.13;;;11.40;87.10
44131;BME280;29792;48.726;9.248;2023-03-14T12:14:27;95165.69;;;11.31;87.09
44131;BME280;29792;48.726;9.248;2023-03-14T12:16:59;95186.50;;;11.28;88.75
44131;BME280;29792;48.726;9.248;2023-03-14T12:19:31;95186.25;;;11.23;90.20
44131;BME280;29792;48.726;9.248;2023-03-14T12:22:01;95188.81;;;11.23;91.24
44131;BME280;29792;48.726;9.248;2023-03-14T12:24:34;95183.91;;;11.13;89.89
44131;BME280;29792;48.726;9.248;2023-03-14T12:27:04;95195.31;;;11.11;91.08
44131;BME280;29792;48.726;9.248;2023-03-14T12:29:30;95206.63;;;11.16;90.57
44131;BME280;29792;48.726;9.248;2023-03-14T12:32:22;95223.41;;;11.27;90.16
44131;BME280;29792;48.726;9.248;2023-03-14T12:34:49;95237.44;;;11.31;89.06
44131;BME280;29792;48.726;9.248;2023-03-14T12:37:36;95243.91;;;11.27;84.54
44131;BME280;29792;48.726;9.248;2023-03-14T12:41:12;95247.00;;;11.37;82.08
44131;BME280;29792;48.726;9.248;2023-03-14T12:43:25;95269.59;;;11.41;78.79
44131;BME280;29792;48.726;9.248;2023-03-14T12:48:34;95290.19;;;11.25;77.23
44131;BME280;29792;48.726;9.248;2023-03-14T12:51:05;95289.41;;;11.25;76.81
44131;BME280;29792;48.726;9.248;2023-03-14T12:56:45;95304.16;;;11.68;77.05
44131;BME280;29792;48.726;9.248;2023-03-14T12:59:28;95314.19;;;12.01;75.08
44131;BME280;29792;48.726;9.248;2023-03-14T13:01:58;95326.22;;;12.00;68.78
44131;BME280;29792;48.726;9.248;2023-03-14T13:04:33;95339.75;;;11.94;67.61
44131;BME280;29792;48.726;9.248;2023-03-14T13:07:00;95350.97;;;11.93;63.22
44131;BME280;29792;48.726;9.248;2023-03-14T13:11:56;95371.13;;;12.04;59.31
44131;BME280;29792;48.726;9.248;2023-03-14T13:14:28;95371.38;;;12.09;58.54
44131;BME280;29792;48.726;9.248;2023-03-14T13:16:53;95377.84;;;12.05;59.98
44131;BME280;29792;48.726;9.248;2023-03-14T13:19:25;95384.69;;;11.90;58.26
44131;BME280;29792;48.726;9.248;2023-03-14T13:21:56;95410.84;;;12.08;59.52
44131;BME280;29792;48.726;9.248;2023-03-14T13:24:26;95405.47;;;12.78;58.97
44131;BME280;29792;48.726;9.248;2023-03-14T13:26:54;95428.63;;;14.09;55.64
44131;BME280;29792;48.726;9.248;2023-03-14T13:29:23;95431.56;;;14.70;53.14
44131;BME280;29792;48.726;9.248;2023-03-14T13:31:51;95434.22;;;15.52;47.06
44131;BME280;29792;48.726;9.248;2023-03-14T13:34:18;95441.88;;;15.32;46.05